Terminal Aerodrome Forecast
Issued by NWS Topeka, KS

Home | Current Version | Previous Version | Graphics & Text | Print | Product List | Glossary On
Versions: 1 2 3 4 5 6 7 8 9 10 11 12 13 14 15 16 17 18 19 20 21 22 23 24 25 26 27 28 29
551
FTUS43 KTOP 251134
TAFTOP
TAF
KTOP 251134Z 2512/2612 02003KT 4SM -RA VCTS OVC006CB
      TEMPO 2512/2514 1SM TSRA BKN004CB
     FM251400 02003KT 6SM -SHRA VCTS SCT006 BKN020CB
     FM251700 07006KT P6SM BKN035
     FM260000 04005KT P6SM VCTS OVC050CB
     FM260600 04008KT 4SM -SHRA VCTS BKN020CB=

USA.gov is the U.S. government's official web portal to all federal, state and local government web resources and services.